createdAt,value
2023-05-13T00:00:24.754Z,3.83
2023-05-13T00:05:27.214Z,4.10
2023-05-13T00:10:29.734Z,3.87
2023-05-13T00:15:32.093Z,3.77
2023-05-13T00:20:34.552Z,3.80
2023-05-13T00:25:38.464Z,4.30
2023-05-13T00:30:44.820Z,3.63
2023-05-13T00:35:47.312Z,4.20
2023-05-13T00:40:50.476Z,4.03
2023-05-13T00:45:53.022Z,4.23
2023-05-13T00:50:55.942Z,4.57
2023-05-13T00:55:58.325Z,4.30
2023-05-13T01:01:07.186Z,4.33
2023-05-13T01:06:15.010Z,4.05
2023-05-13T01:11:39.574Z,4.47
2023-05-13T01:17:08.878Z,4.00
2023-05-13T01:22:11.676Z,4.30
2023-05-13T01:27:14.711Z,3.87
2023-05-13T01:32:17.407Z,3.97
2023-05-13T01:37:21.438Z,4.27
2023-05-13T01:42:25.005Z,4.00
2023-05-13T01:47:29.079Z,4.23
2023-05-13T01:52:32.903Z,3.87
2023-05-13T01:57:35.597Z,4.30
2023-05-13T02:02:38.374Z,3.80
2023-05-13T02:07:40.843Z,4.40
2023-05-13T02:12:45.486Z,3.67
2023-05-13T02:17:48.082Z,3.97
2023-05-13T02:22:50.774Z,4.30
2023-05-13T02:27:53.231Z,5.30
2023-05-13T02:32:57.182Z,4.17
2023-05-13T02:37:59.649Z,4.10
2023-05-13T02:43:04.009Z,3.73
2023-05-13T02:48:20.211Z,4.03
2023-05-13T02:53:23.561Z,4.33
2023-05-13T02:58:30.810Z,3.43
2023-05-13T03:03:34.790Z,3.40
2023-05-13T03:08:37.546Z,4.10
2023-05-13T03:13:39.905Z,3.73
2023-05-13T03:18:42.520Z,4.00
2023-05-13T03:23:45.260Z,3.70
2023-05-13T03:28:47.827Z,3.90
2023-05-13T03:33:51.147Z,3.63
2023-05-13T03:38:53.664Z,3.70
2023-05-13T03:43:56.194Z,3.57
2023-05-13T03:48:58.775Z,3.40
2023-05-13T03:54:04.117Z,3.80
2023-05-13T03:59:06.979Z,3.17
2023-05-13T04:04:11.546Z,3.60
2023-05-13T04:09:13.940Z,3.40
2023-05-13T04:14:18.420Z,3.20
2023-05-13T04:19:20.857Z,3.10
2023-05-13T04:24:23.208Z,3.50
2023-05-13T04:29:25.819Z,4.07
2023-05-13T04:34:28.387Z,3.97
2023-05-13T04:39:31.348Z,3.20
2023-05-13T04:44:35.395Z,3.00
2023-05-13T04:49:37.910Z,2.63
2023-05-13T04:54:42.897Z,2.53
2023-05-13T04:59:46.209Z,3.73
2023-05-13T05:04:49.867Z,2.60
2023-05-13T05:09:53.457Z,3.17
2023-05-13T05:14:56.823Z,3.10
2023-05-13T05:20:00.182Z,2.40
2023-05-13T05:25:03.940Z,2.50
2023-05-13T05:30:07.376Z,3.10
2023-05-13T05:35:11.532Z,2.83
2023-05-13T05:40:14.409Z,3.50
2023-05-13T05:45:17.143Z,2.50
2023-05-13T05:50:21.138Z,3.07
2023-05-13T05:55:23.960Z,2.80
2023-05-13T06:00:27.816Z,2.50
2023-05-13T06:05:31.029Z,2.70
2023-05-13T06:10:33.408Z,2.80
2023-05-13T06:15:37.079Z,2.97
2023-05-13T06:20:40.378Z,3.30
2023-05-13T06:25:42.912Z,4.20
2023-05-13T06:30:46.287Z,6.90
2023-05-13T06:35:50.288Z,5.60
2023-05-13T06:40:56.378Z,5.63
2023-05-13T06:46:05.616Z,4.13
2023-05-13T06:51:08.234Z,8.43
2023-05-13T06:56:10.614Z,4.30
2023-05-13T07:01:13.174Z,5.83
2023-05-13T07:06:15.805Z,6.20
2023-05-13T07:11:18.707Z,4.57
2023-05-13T07:16:21.597Z,4.30
2023-05-13T07:21:24.249Z,4.13
2023-05-13T07:26:26.853Z,3.80
2023-05-13T07:31:30.922Z,3.63
2023-05-13T07:36:33.524Z,4.10
2023-05-13T07:41:36.966Z,2.77
2023-05-13T07:46:42.605Z,3.10
2023-05-13T07:51:45.056Z,3.20
2023-05-13T07:56:48.406Z,3.20
2023-05-13T08:01:51.949Z,2.80
2023-05-13T08:06:54.476Z,2.65
2023-05-13T08:11:57.257Z,3.10
2023-05-13T08:16:59.772Z,2.50
2023-05-13T08:22:02.276Z,2.90
2023-05-13T08:27:06.042Z,2.88
2023-05-13T08:32:08.580Z,3.15
2023-05-13T08:37:11.035Z,3.20
2023-05-13T08:42:15.533Z,3.70
2023-05-13T08:47:36.831Z,3.72
2023-05-13T08:52:40.477Z,3.80
2023-05-13T08:57:43.123Z,3.40
2023-05-13T09:02:45.941Z,3.10
2023-05-13T09:07:48.527Z,2.55
2023-05-13T09:12:55.549Z,2.60
2023-05-13T09:18:05.102Z,2.80
2023-05-13T09:23:11.878Z,2.55
2023-05-13T09:28:15.293Z,3.30
2023-05-13T09:33:22.106Z,2.83
2023-05-13T09:38:29.695Z,3.00
2023-05-13T09:43:33.413Z,3.35
2023-05-13T09:48:38.387Z,3.22
2023-05-13T09:53:41.664Z,3.60
2023-05-13T09:58:52.302Z,2.97
2023-05-13T10:03:56.732Z,2.70
2023-05-13T10:09:03.624Z,5.28
2023-05-13T10:14:07.189Z,2.95
2023-05-13T10:19:10.762Z,2.92
2023-05-13T10:24:14.017Z,3.78
2023-05-13T10:29:17.441Z,3.88
2023-05-13T10:34:19.895Z,3.35
2023-05-13T10:39:36.167Z,2.88
2023-05-13T10:44:38.576Z,3.47
2023-05-13T10:49:41.124Z,2.72
2023-05-13T10:54:43.518Z,3.08
2023-05-13T11:00:16.428Z,3.22
2023-05-13T11:05:22.386Z,3.33
2023-05-13T11:10:32.256Z,2.70
2023-05-13T11:15:51.198Z,3.13
2023-05-13T11:20:54.283Z,2.55
2023-05-13T11:26:19.312Z,2.92
2023-05-13T11:31:24.106Z,3.13
2023-05-13T11:36:31.301Z,2.60
2023-05-13T11:41:34.721Z,2.85
2023-05-13T11:46:37.625Z,2.83
2023-05-13T11:51:40.465Z,3.30
2023-05-13T11:56:43.602Z,3.20
2023-05-13T12:01:46.245Z,3.10
2023-05-13T12:06:49.474Z,4.25
2023-05-13T12:11:53.165Z,3.08
2023-05-13T12:16:56.880Z,2.63
2023-05-13T12:22:00.133Z,2.75
2023-05-13T12:27:09.437Z,3.30
2023-05-13T12:32:17.365Z,3.45
2023-05-13T12:37:19.827Z,2.55
2023-05-13T12:42:22.618Z,2.78
2023-05-13T12:47:25.302Z,2.72
2023-05-13T12:52:27.859Z,2.75
2023-05-13T12:57:32.241Z,3.70
2023-05-13T13:02:34.954Z,3.92
2023-05-13T13:07:38.489Z,3.67
2023-05-13T13:12:41.032Z,3.10
2023-05-13T13:17:48.392Z,3.28
2023-05-13T13:22:50.859Z,3.60
2023-05-13T13:27:53.193Z,4.07
2023-05-13T13:32:55.814Z,3.78
2023-05-13T13:37:58.258Z,4.07
2023-05-13T13:43:00.754Z,2.55
2023-05-13T13:48:03.337Z,3.03
2023-05-13T13:53:06.032Z,3.67
2023-05-13T13:58:08.535Z,3.60
2023-05-13T14:03:11.289Z,3.15
2023-05-13T14:08:13.966Z,2.92
2023-05-13T14:13:16.666Z,2.70
2023-05-13T14:18:19.040Z,2.83
2023-05-13T14:23:21.609Z,2.90
2023-05-13T14:28:25.105Z,3.40
2023-05-13T14:33:27.788Z,4.57
2023-05-13T14:38:30.247Z,3.17
2023-05-13T14:43:32.703Z,3.50
2023-05-13T14:48:35.155Z,2.97
2023-05-13T14:53:37.657Z,3.35
2023-05-13T14:58:40.036Z,2.90
2023-05-13T15:03:43.587Z,2.83
2023-05-13T15:08:46.210Z,3.80
2023-05-13T15:13:48.749Z,3.70
2023-05-13T15:18:51.404Z,4.07
2023-05-13T15:23:53.862Z,4.78
2023-05-13T15:28:56.303Z,3.88
2023-05-13T15:33:58.712Z,3.65
2023-05-13T15:39:02.883Z,4.32
2023-05-13T15:44:05.666Z,4.32
2023-05-13T15:49:08.260Z,3.40
2023-05-13T15:54:10.868Z,3.33
2023-05-13T15:59:13.449Z,3.58
2023-05-13T16:04:16.731Z,3.08
2023-05-13T16:09:19.329Z,4.38
2023-05-13T16:14:22.096Z,3.95
2023-05-13T16:19:24.742Z,3.38
2023-05-13T16:24:27.195Z,9.00
2023-05-13T16:29:29.832Z,5.15
2023-05-13T16:34:32.181Z,4.00
2023-05-13T16:39:34.684Z,4.45
2023-05-13T16:44:37.252Z,3.05
2023-05-13T16:49:40.276Z,4.00
2023-05-13T16:54:45.615Z,4.05
2023-05-13T16:59:48.471Z,4.20
2023-05-13T17:04:51.754Z,3.90
2023-05-13T17:09:54.223Z,3.20
2023-05-13T17:14:56.922Z,3.42
2023-05-13T17:19:59.453Z,3.70
2023-05-13T17:25:02.087Z,3.78
2023-05-13T17:30:06.579Z,5.55
2023-05-13T17:35:10.049Z,5.80
2023-05-13T17:40:13.003Z,5.35
2023-05-13T17:45:15.556Z,5.25
2023-05-13T17:50:18.877Z,4.67
2023-05-13T17:55:21.436Z,4.47
2023-05-13T18:00:25.475Z,5.13
2023-05-13T18:05:28.139Z,4.90
2023-05-13T18:10:30.791Z,5.57
2023-05-13T18:15:33.493Z,6.17
2023-05-13T18:20:38.305Z,5.03
2023-05-13T18:25:52.462Z,5.77
2023-05-13T18:31:01.037Z,7.00
2023-05-13T18:36:03.689Z,8.80
2023-05-13T18:41:07.159Z,9.07
2023-05-13T18:46:10.051Z,8.43
2023-05-13T18:51:12.609Z,7.87
2023-05-13T18:56:15.293Z,7.70
2023-05-13T19:01:17.996Z,6.83
2023-05-13T19:06:20.786Z,5.70
2023-05-13T19:11:23.546Z,6.10
2023-05-13T19:16:26.706Z,6.70
2023-05-13T19:21:29.417Z,5.93
2023-05-13T19:26:31.969Z,5.03
2023-05-13T19:31:35.881Z,4.83
2023-05-13T19:36:38.863Z,5.40
2023-05-13T19:41:41.425Z,5.23
2023-05-13T19:46:44.113Z,4.80
2023-05-13T19:51:47.020Z,5.00
2023-05-13T19:56:49.508Z,4.77
2023-05-13T20:01:52.330Z,5.80
2023-05-13T20:06:56.961Z,6.07
2023-05-13T20:12:00.264Z,5.40
2023-05-13T20:17:02.776Z,4.50
2023-05-13T20:22:05.492Z,4.27
2023-05-13T20:27:07.844Z,3.57
2023-05-13T20:32:10.975Z,4.47
2023-05-13T20:37:17.129Z,3.53
2023-05-13T20:42:21.993Z,3.80
2023-05-13T20:47:24.456Z,4.03
2023-05-13T20:52:26.946Z,3.53
2023-05-13T20:57:29.374Z,3.03
2023-05-13T21:02:31.920Z,2.77
2023-05-13T21:07:35.719Z,2.73
2023-05-13T21:12:38.233Z,2.87
2023-05-13T21:17:41.195Z,3.30
2023-05-13T21:22:43.709Z,2.80
2023-05-13T21:27:46.388Z,2.70
2023-05-13T21:32:48.922Z,2.43
2023-05-13T21:37:56.097Z,3.40
2023-05-13T21:43:03.878Z,2.33
2023-05-13T21:48:07.280Z,3.00
2023-05-13T21:53:10.176Z,2.53
2023-05-13T21:58:12.870Z,3.40
2023-05-13T22:03:15.456Z,2.53
2023-05-13T22:08:18.145Z,2.50
2023-05-13T22:13:21.958Z,2.00
2023-05-13T22:18:24.881Z,2.00
2023-05-13T22:23:27.814Z,2.60
2023-05-13T22:28:30.219Z,2.10
2023-05-13T22:33:32.673Z,2.30
2023-05-13T22:38:35.816Z,1.80
2023-05-13T22:43:38.702Z,2.00
2023-05-13T22:48:41.214Z,2.53
2023-05-13T22:53:43.655Z,2.00
2023-05-13T22:58:46.693Z,1.70
2023-05-13T23:03:49.126Z,2.47
2023-05-13T23:08:51.672Z,2.40
2023-05-13T23:13:54.069Z,2.80
2023-05-13T23:18:56.726Z,2.10
2023-05-13T23:23:59.893Z,2.07
2023-05-13T23:29:02.292Z,2.30
2023-05-13T23:34:04.726Z,2.50
2023-05-13T23:39:07.214Z,2.20
2023-05-13T23:44:09.590Z,2.00
2023-05-13T23:49:12.307Z,1.93
2023-05-13T23:54:14.927Z,1.97
2023-05-13T23:59:17.422Z,1.73
